Pagrindinis puslapis
METAR-TAF:

METAR-TAF

Oro uostai :

Managva, Nikaragva

platuma: 12-09N, ilguma: 086-10W, Aukštis: 50 m

Dabartinis oras

Ataskaita buvo paskelbta 26 minutes, ne 13:00 UTC
Ramus vėjas
Temperatūra 27°C
Drėgmė 84%
Slėgis 1011 hPa
Matomumas 10 km arba daugiau
Mažai debesys ne aukštis 2200 ft

METAR: MNMG 221300Z 00000KT 9999 FEW022 27/24 Q1010 A2984 NOSIG

Laikas: 07:26 (13:26 UTC)

Prognozė

Ataskaita buvo paskelbta 3 valandos ir 16 minutes, ne 10:10 UTC
Prognozė galioja nuo 22 metu 12 UTC su 23 metu 12 UTC
Vėjas 6 kt iš Rytų/Pietryčių
Matomumas 10 km arba daugiau
Mažai debesys ne aukštis 2200 ft
Išsisklaidę debesys ne aukštis 7000 ft
Tapsmas
nuo 22 metu 14 UTC su 22 metu 16 UTC
Vėjas 12 kt iš Rytų
Išsisklaidę debesys ne aukštis 2200 ft
Tikimybė 30% :
Laikinai
nuo 22 metu 22 UTC su 23 metu 02 UTC
Matomumas: 7000 m
Mažai debesys ne aukštis 2200 ft, Liūtiniai kamuoliniai debesys.
perkūnija, lietus

TAF: MNMG 221010Z 2212/2312 12006KT 9999 FEW022 SCT070 BECMG 2214/2216 09012KT SCT022 PROB30 TEMPO 2222/2302 7000 -TSRA FEW022CB

Orai ataskaitas ir orų prognozės (METAR, TAF).

turimą stotys yra geltonos ir raudonos taškus žemėlapyje.

Perkelti pele per norėdami pamatyti stoties vardą.

Tada spustelėkite, norėdami matyti oro stebėjimo ir prognozės.

Norėdami pakeisti žemėlapį: spustelėkite ant žalios mygtukų su juodo kryžiaus žemyn,; žalią mygtuką su brūkšneliu, jei norite nutolinti; arba žalių rodyklių gretimoms žemėlapius.


METAR-TAF: